Time;durP1;ratioP1;P1;durP2;ratioP2;P2;SDS_P1;SDS_P2;PMS_P1;PMS_P2;Temp;Humidity;BMP_temperature;BMP_pressure;BME280_temperature;BME280_humidity;BME280_pressure;Samples;Min_cycle;Max_cycle;Signal;HPM_P1;HPM_P2
2023/04/01 00:01:21;;;;;;;1.57;1.57;;;;;;;;;;6234415;28;20500;-73
2023/04/01 00:04:26;;;;;;;2.93;1.80;;;;;;;;;;6234467;28;20311;-73
2023/04/01 00:07:31;;;;;;;2.73;1.60;;;;;;;;;;6234692;28;20298;-71
2023/04/01 00:10:36;;;;;;;1.40;1.40;;;;;;;;;;6235521;28;20489;-74
2023/04/01 00:13:43;;;;;;;1.60;1.60;;;;;;;;;;6237439;28;20299;-73
2023/04/01 00:16:48;;;;;;;1.67;1.67;;;;;;;;;;6235784;28;20370;-74
2023/04/01 00:19:55;;;;;;;1.67;1.67;;;;;;;;;;6235296;28;20301;-73
2023/04/01 00:23:00;;;;;;;1.47;1.47;;;;;;;;;;6235020;28;20373;-74
2023/04/01 00:26:06;;;;;;;1.70;1.70;;;;;;;;;;6235333;28;20294;-74
2023/04/01 00:29:13;;;;;;;2.10;1.47;;;;;;;;;;6232947;28;20297;-73
2023/04/01 00:32:18;;;;;;;1.60;1.50;;;;;;;;;;6235009;28;20486;-73
2023/04/01 00:35:24;;;;;;;1.63;1.53;;;;;;;;;;6235268;28;20292;-73
2023/04/01 00:38:29;;;;;;;1.70;1.63;;;;;;;;;;6233236;28;20305;-73
2023/04/01 00:41:34;;;;;;;1.40;1.40;;;;;;;;;;6233838;28;20304;-73
2023/04/01 00:44:41;;;;;;;1.53;1.53;;;;;;;;;;6232574;28;20319;-73
2023/04/01 00:47:46;;;;;;;1.50;1.50;;;;;;;;;;6233114;28;20276;-73
2023/04/01 00:50:53;;;;;;;1.90;1.80;;;;;;;;;;6233864;28;20304;-73
2023/04/01 00:54:01;;;;;;;1.63;1.63;;;;;;;;;;6233949;28;20292;-73
2023/04/01 00:57:09;;;;;;;1.80;1.70;;;;;;;;;;6234363;28;20468;-74
2023/04/01 01:00:17;;;;;;;1.67;1.67;;;;;;;;;;6234409;28;20302;-74
2023/04/01 01:03:22;;;;;;;1.70;1.60;;;;;;;;;;6232356;28;20485;-74
2023/04/01 01:06:39;;;;;;;1.47;1.47;;;;;;;;;;6233575;28;20293;-74
2023/04/01 01:09:49;;;;;;;1.47;1.47;;;;;;;;;;6234875;28;20332;-73
2023/04/01 01:12:59;;;;;;;2.83;1.67;;;;;;;;;;6242274;28;20456;-73
2023/04/01 01:16:10;;;;;;;2.10;2.00;;;;;;;;;;6233248;28;20375;-73
2023/04/01 01:19:47;;;;;;;2.20;1.47;;;;;;;;;;6232450;28;20327;-73
2023/04/01 01:23:09;;;;;;;1.70;1.70;;;;;;;;;;6231706;28;20305;-73
2023/04/01 01:26:28;;;;;;;1.80;1.70;;;;;;;;;;6234053;28;20327;-74
2023/04/01 01:30:09;;;;;;;1.70;1.70;;;;;;;;;;6233627;28;20384;-73
2023/04/01 01:33:39;;;;;;;1.57;1.57;;;;;;;;;;6232638;28;20290;-75
2023/04/01 01:36:48;;;;;;;1.63;1.63;;;;;;;;;;6232972;28;20326;-73
2023/04/01 01:39:57;;;;;;;1.57;1.57;;;;;;;;;;6233700;28;20296;-74
2023/04/01 01:43:07;;;;;;;1.83;1.67;;;;;;;;;;6232629;28;20288;-74
2023/04/01 01:46:14;;;;;;;2.00;2.00;;;;;;;;;;6234040;28;20368;-74
2023/04/01 01:49:20;;;;;;;1.60;1.50;;;;;;;;;;6233774;28;20289;-73
2023/04/01 01:52:27;;;;;;;1.80;1.70;;;;;;;;;;6232937;28;20308;-73
2023/04/01 01:55:35;;;;;;;1.50;1.50;;;;;;;;;;6231766;28;20300;-73
2023/04/01 01:58:42;;;;;;;2.50;1.60;;;;;;;;;;6230950;28;20297;-75
2023/04/01 02:01:52;;;;;;;1.77;1.77;;;;;;;;;;6233561;28;20285;-74
2023/04/01 02:04:58;;;;;;;2.23;1.53;;;;;;;;;;6236807;28;20300;-73
2023/04/01 02:08:08;;;;;;;1.47;1.47;;;;;;;;;;6236720;28;20453;-73
2023/04/01 02:11:16;;;;;;;1.60;1.60;;;;;;;;;;6250145;28;20302;-74
2023/04/01 02:14:26;;;;;;;1.43;1.43;;;;;;;;;;6235924;28;20299;-73
2023/04/01 02:17:32;;;;;;;1.50;1.50;;;;;;;;;;6236484;28;20301;-74
2023/04/01 02:20:39;;;;;;;1.33;1.33;;;;;;;;;;6236535;28;20296;-74
2023/04/01 02:23:47;;;;;;;1.50;1.50;;;;;;;;;;6235554;28;20305;-73
2023/04/01 02:26:53;;;;;;;1.50;1.50;;;;;;;;;;6236468;28;20337;-74
2023/04/01 02:29:59;;;;;;;1.47;1.47;;;;;;;;;;6223725;28;20425;-73
2023/04/01 02:33:05;;;;;;;1.50;1.50;;;;;;;;;;6217838;28;20302;-73
2023/04/01 02:36:14;;;;;;;1.50;1.50;;;;;;;;;;6223559;28;20300;-74
2023/04/01 02:39:22;;;;;;;1.93;1.83;;;;;;;;;;6210710;28;20408;-73
2023/04/01 02:42:27;;;;;;;1.50;1.43;;;;;;;;;;6211630;28;20300;-74
2023/04/01 02:45:32;;;;;;;1.53;1.53;;;;;;;;;;6236116;28;20295;-72
2023/04/01 02:48:38;;;;;;;1.40;1.40;;;;;;;;;;6237196;28;20574;-73
2023/04/01 02:51:44;;;;;;;1.27;1.27;;;;;;;;;;6237255;28;20297;-73
2023/04/01 02:54:50;;;;;;;1.47;1.47;;;;;;;;;;6215321;28;20615;-73
2023/04/01 02:57:55;;;;;;;1.50;1.50;;;;;;;;;;6215635;28;20288;-74
2023/04/01 03:01:00;;;;;;;1.47;1.47;;;;;;;;;;6237200;28;20311;-73
2023/04/01 03:04:06;;;;;;;1.50;1.50;;;;;;;;;;6233652;28;20300;-73
2023/04/01 03:07:11;;;;;;;1.40;1.40;;;;;;;;;;6243472;28;20299;-74
2023/04/01 03:10:18;;;;;;;1.57;1.53;;;;;;;;;;6237170;28;20296;-73
2023/04/01 03:13:23;;;;;;;1.60;1.50;;;;;;;;;;6237561;28;20321;-74
2023/04/01 03:16:28;;;;;;;1.53;1.50;;;;;;;;;;6235145;28;20296;-74
2023/04/01 03:19:34;;;;;;;1.50;1.40;;;;;;;;;;6234656;28;20303;-74
2023/04/01 03:22:45;;;;;;;2.43;1.40;;;;;;;;;;6258067;28;20295;-74
2023/04/01 03:25:52;;;;;;;1.50;1.50;;;;;;;;;;6259470;28;20268;-72
2023/04/01 03:28:57;;;;;;;1.70;1.40;;;;;;;;;;6259344;28;20307;-73
2023/04/01 03:32:02;;;;;;;1.40;1.40;;;;;;;;;;6259463;28;20295;-73
2023/04/01 03:35:10;;;;;;;1.43;1.43;;;;;;;;;;6260142;28;20464;-72
2023/04/01 03:38:17;;;;;;;1.90;1.80;;;;;;;;;;6234510;28;20303;-73
2023/04/01 03:41:23;;;;;;;1.50;1.50;;;;;;;;;;6234760;28;20331;-74
2023/04/01 03:44:33;;;;;;;1.67;1.57;;;;;;;;;;6234443;28;20303;-73
2023/04/01 03:47:38;;;;;;;1.40;1.30;;;;;;;;;;6233933;28;20592;-73
2023/04/01 03:50:44;;;;;;;1.40;1.40;;;;;;;;;;6234130;28;20295;-73
2023/04/01 03:53:50;;;;;;;1.60;1.50;;;;;;;;;;6234062;28;20293;-73
2023/04/01 03:56:57;;;;;;;2.43;1.57;;;;;;;;;;6234553;28;20300;-74
2023/04/01 04:00:03;;;;;;;1.40;1.40;;;;;;;;;;6233793;28;20293;-74
2023/04/01 04:03:17;;;;;;;1.57;1.57;;;;;;;;;;6234285;28;20596;-73
2023/04/01 04:06:23;;;;;;;1.80;1.33;;;;;;;;;;6235259;28;20506;-73
2023/04/01 04:09:31;;;;;;;1.30;1.30;;;;;;;;;;6233598;28;20299;-73
2023/04/01 04:12:38;;;;;;;1.30;1.30;;;;;;;;;;6236895;28;20295;-74
2023/04/01 04:15:43;;;;;;;1.30;1.30;;;;;;;;;;6234016;28;20300;-73
2023/04/01 04:18:48;;;;;;;1.30;1.30;;;;;;;;;;6233253;28;20298;-73
2023/04/01 04:21:54;;;;;;;1.30;1.30;;;;;;;;;;6233912;28;20295;-73
2023/04/01 04:24:59;;;;;;;1.53;1.53;;;;;;;;;;6233234;28;20300;-73
2023/04/01 04:28:06;;;;;;;1.47;1.40;;;;;;;;;;6234027;28;20486;-73
2023/04/01 04:31:12;;;;;;;1.30;1.30;;;;;;;;;;6234047;28;20593;-74
2023/04/01 04:34:19;;;;;;;1.90;1.20;;;;;;;;;;6233210;28;20303;-73
2023/04/01 04:37:25;;;;;;;2.00;1.80;;;;;;;;;;6233529;28;20315;-73
2023/04/01 04:40:31;;;;;;;2.10;1.50;;;;;;;;;;6233976;28;20608;-73
2023/04/01 04:43:38;;;;;;;1.50;1.50;;;;;;;;;;6233231;28;20611;-74
2023/04/01 04:46:43;;;;;;;1.70;1.50;;;;;;;;;;6232786;28;20274;-74
2023/04/01 04:49:52;;;;;;;1.47;1.47;;;;;;;;;;6233414;28;20493;-74
2023/04/01 04:52:57;;;;;;;2.27;1.23;;;;;;;;;;6233210;28;20299;-74
2023/04/01 04:56:03;;;;;;;1.37;1.37;;;;;;;;;;6233403;28;20293;-74
2023/04/01 04:59:17;;;;;;;1.30;1.20;;;;;;;;;;6233177;28;20303;-73
2023/04/01 05:02:29;;;;;;;1.70;1.70;;;;;;;;;;6232463;28;20304;-75
2023/04/01 05:05:35;;;;;;;1.50;1.50;;;;;;;;;;6234187;28;20492;-74
2023/04/01 05:08:42;;;;;;;1.63;1.43;;;;;;;;;;6232864;28;20300;-73
2023/04/01 05:11:47;;;;;;;1.40;1.30;;;;;;;;;;6237053;28;20588;-74
2023/04/01 05:14:54;;;;;;;1.37;1.37;;;;;;;;;;6233093;28;20328;-74
2023/04/01 05:17:59;;;;;;;1.30;1.30;;;;;;;;;;6232621;28;20284;-75
2023/04/01 05:21:04;;;;;;;1.47;1.37;;;;;;;;;;6233788;28;20296;-74
2023/04/01 05:24:10;;;;;;;1.60;1.60;;;;;;;;;;6233308;28;20499;-74
2023/04/01 05:27:16;;;;;;;1.20;1.20;;;;;;;;;;6233447;28;20488;-74
2023/04/01 05:30:23;;;;;;;2.17;1.27;;;;;;;;;;6232494;28;20301;-74
2023/04/01 05:33:38;;;;;;;1.43;1.40;;;;;;;;;;6232673;28;20296;-74
2023/04/01 05:36:44;;;;;;;2.80;1.50;;;;;;;;;;6235131;28;20293;-74
2023/04/01 05:39:49;;;;;;;1.30;1.10;;;;;;;;;;6236801;28;20297;-73
2023/04/01 05:42:54;;;;;;;1.70;1.40;;;;;;;;;;6237263;28;20302;-74
2023/04/01 05:46:01;;;;;;;1.60;1.60;;;;;;;;;;6237524;28;20603;-75
2023/04/01 05:49:14;;;;;;;2.47;1.20;;;;;;;;;;6237336;28;20289;-73
2023/04/01 05:52:19;;;;;;;1.30;1.30;;;;;;;;;;6237870;28;20301;-74
2023/04/01 05:55:25;;;;;;;1.30;1.30;;;;;;;;;;6237406;28;20582;-74
2023/04/01 05:58:30;;;;;;;1.37;1.30;;;;;;;;;;6238385;28;20293;-73
2023/04/01 06:01:36;;;;;;;2.50;1.30;;;;;;;;;;6237709;28;20334;-73
2023/04/01 06:04:42;;;;;;;1.37;1.37;;;;;;;;;;6236985;28;20298;-74
2023/04/01 06:07:47;;;;;;;1.23;1.23;;;;;;;;;;6236776;28;20310;-74
2023/04/01 06:11:01;;;;;;;1.40;1.40;;;;;;;;;;6239067;28;20270;-73
2023/04/01 06:14:17;;;;;;;1.20;1.20;;;;;;;;;;6216398;28;20463;-73
2023/04/01 06:17:39;;;;;;;4.13;1.40;;;;;;;;;;6236805;28;20550;-73
2023/04/01 06:20:49;;;;;;;1.67;1.47;;;;;;;;;;6237227;28;20432;-73
2023/04/01 06:24:04;;;;;;;1.43;1.40;;;;;;;;;;6236517;28;20303;-74
2023/04/01 06:27:17;;;;;;;1.40;1.40;;;;;;;;;;6237906;28;20312;-74
2023/04/01 06:30:39;;;;;;;1.67;1.57;;;;;;;;;;6236596;28;20295;-74
2023/04/01 06:33:57;;;;;;;2.93;1.50;;;;;;;;;;6235909;28;20298;-74
2023/04/01 06:37:19;;;;;;;1.03;1.03;;;;;;;;;;6236679;28;20303;-74
2023/04/01 06:40:49;;;;;;;2.53;1.20;;;;;;;;;;6235624;28;20318;-73
2023/04/01 06:44:00;;;;;;;2.00;1.30;;;;;;;;;;6233095;28;20502;-74
2023/04/01 06:47:38;;;;;;;2.93;1.30;;;;;;;;;;6212927;28;20293;-73
2023/04/01 06:51:12;;;;;;;1.10;1.10;;;;;;;;;;6236490;28;20295;-74
2023/04/01 06:54:37;;;;;;;1.27;1.27;;;;;;;;;;6221333;28;20647;-74
2023/04/01 06:58:15;;;;;;;2.63;1.20;;;;;;;;;;6211212;28;20304;-74
2023/04/01 07:01:23;;;;;;;3.60;1.30;;;;;;;;;;6211561;28;20611;-74
2023/04/01 07:04:32;;;;;;;1.30;1.20;;;;;;;;;;6210118;28;20312;-74
2023/04/01 07:07:41;;;;;;;1.30;1.30;;;;;;;;;;6211880;28;20294;-75
2023/04/01 07:10:53;;;;;;;1.17;1.10;;;;;;;;;;6222788;28;20427;-75
2023/04/01 07:14:23;;;;;;;1.10;1.07;;;;;;;;;;6211595;28;20305;-75
2023/04/01 07:17:31;;;;;;;1.40;1.30;;;;;;;;;;6210540;28;20315;-74
2023/04/01 07:20:38;;;;;;;1.00;1.00;;;;;;;;;;6211611;28;20299;-75
2023/04/01 07:23:47;;;;;;;3.40;1.10;;;;;;;;;;6210981;28;20304;-74
2023/04/01 07:27:16;;;;;;;1.10;1.10;;;;;;;;;;6211322;28;20286;-75
2023/04/01 07:30:23;;;;;;;1.20;1.20;;;;;;;;;;6250799;28;20592;-73
2023/04/01 07:33:37;;;;;;;1.30;1.30;;;;;;;;;;6235194;28;20300;-76
2023/04/01 07:36:46;;;;;;;1.53;1.33;;;;;;;;;;6235494;28;20289;-74
2023/04/01 07:39:59;;;;;;;1.20;1.20;;;;;;;;;;6251381;28;20311;-75
2023/04/01 07:43:26;;;;;;;3.40;1.33;;;;;;;;;;6234346;28;20393;-73
2023/04/01 07:47:07;;;;;;;1.17;1.10;;;;;;;;;;6234349;28;20336;-74
2023/04/01 07:50:19;;;;;;;1.67;1.30;;;;;;;;;;6235870;28;20298;-74
2023/04/01 07:53:31;;;;;;;1.07;1.07;;;;;;;;;;6234354;28;20328;-74
2023/04/01 07:56:44;;;;;;;1.23;1.20;;;;;;;;;;6251399;28;20456;-75
2023/04/01 08:00:00;;;;;;;1.53;1.10;;;;;;;;;;6234108;28;20428;-73
2023/04/01 08:03:35;;;;;;;1.20;1.20;;;;;;;;;;6233590;28;20393;-75
2023/04/01 08:06:48;;;;;;;1.10;1.10;;;;;;;;;;6234962;28;20293;-74
2023/04/01 08:10:00;;;;;;;2.27;1.20;;;;;;;;;;6238347;28;20284;-77
2023/04/01 08:13:33;;;;;;;1.33;1.33;;;;;;;;;;6241383;28;20316;-73
2023/04/01 08:17:05;;;;;;;3.73;3.30;;;;;;;;;;6225030;28;20280;-73
2023/04/01 08:20:27;;;;;;;1.90;1.80;;;;;;;;;;6233227;28;20303;-76
2023/04/01 08:23:34;;;;;;;2.60;2.03;;;;;;;;;;6235475;28;20293;-76
2023/04/01 08:26:45;;;;;;;3.20;1.57;;;;;;;;;;6234182;28;20297;-75
2023/04/01 08:29:58;;;;;;;1.40;1.40;;;;;;;;;;6233977;28;20626;-76
2023/04/01 08:33:10;;;;;;;1.80;1.80;;;;;;;;;;6234057;28;20294;-75
2023/04/01 08:36:19;;;;;;;2.17;2.07;;;;;;;;;;6234463;28;20356;-76
2023/04/01 08:39:35;;;;;;;4.00;1.67;;;;;;;;;;6232905;28;20303;-76
2023/04/01 08:42:55;;;;;;;1.57;1.50;;;;;;;;;;6234285;28;20584;-76
2023/04/01 08:46:21;;;;;;;1.53;1.43;;;;;;;;;;6233653;28;20302;-78
2023/04/01 08:49:53;;;;;;;1.60;1.50;;;;;;;;;;6234868;28;20306;-75
2023/04/01 08:53:26;;;;;;;1.70;1.50;;;;;;;;;;6233935;28;20458;-75
2023/04/01 08:56:35;;;;;;;2.23;1.60;;;;;;;;;;6233751;28;20298;-75
2023/04/01 08:59:56;;;;;;;1.93;1.60;;;;;;;;;;6233263;28;20304;-76
2023/04/01 09:03:36;;;;;;;1.13;1.03;;;;;;;;;;6234453;28;20453;-75
2023/04/01 09:06:52;;;;;;;1.63;1.27;;;;;;;;;;6233497;28;20314;-75
2023/04/01 09:10:20;;;;;;;1.30;1.30;;;;;;;;;;6233156;28;20296;-76
2023/04/01 09:13:59;;;;;;;1.70;1.37;;;;;;;;;;6218036;28;20305;-76
2023/04/01 09:17:22;;;;;;;1.03;1.03;;;;;;;;;;6206029;28;20446;-75
2023/04/01 09:20:48;;;;;;;1.30;1.30;;;;;;;;;;6237672;28;20295;-77
2023/04/01 09:24:30;;;;;;;1.20;1.20;;;;;;;;;;6231907;28;20292;-75
2023/04/01 09:27:41;;;;;;;1.70;1.60;;;;;;;;;;6151849;28;20299;-78
2023/04/01 09:31:24;;;;;;;2.83;1.33;;;;;;;;;;6238752;28;20291;-76
2023/04/01 09:35:12;;;;;;;1.10;1.10;;;;;;;;;;6241044;28;20299;-74
2023/04/01 09:38:31;;;;;;;1.00;1.00;;;;;;;;;;6238156;28;20456;-75
2023/04/01 09:41:40;;;;;;;1.17;1.17;;;;;;;;;;6236936;28;20301;-76
2023/04/01 09:45:05;;;;;;;1.13;1.10;;;;;;;;;;6234857;28;20495;-75
2023/04/01 09:48:31;;;;;;;1.50;1.40;;;;;;;;;;6232452;28;20296;-75
2023/04/01 09:51:44;;;;;;;1.00;1.00;;;;;;;;;;6213513;28;20303;-75
2023/04/01 09:55:06;;;;;;;1.63;1.53;;;;;;;;;;6232000;28;20301;-74
2023/04/01 09:58:33;;;;;;;1.00;0.90;;;;;;;;;;6236910;28;20296;-74
2023/04/01 10:02:43;;;;;;;1.10;1.10;;;;;;;;;;6238834;28;20612;-76
2023/04/01 10:06:44;;;;;;;1.20;1.20;;;;;;;;;;6214820;28;20389;-75
2023/04/01 10:10:23;;;;;;;2.87;1.50;;;;;;;;;;6235977;28;20303;-75
2023/04/01 10:14:08;;;;;;;1.30;1.30;;;;;;;;;;6224360;28;20307;-76
2023/04/01 10:17:32;;;;;;;1.23;1.23;;;;;;;;;;6237302;28;20305;-75
2023/04/01 10:20:56;;;;;;;1.50;1.40;;;;;;;;;;6236265;28;20515;-74
2023/04/01 10:24:48;;;;;;;1.00;1.00;;;;;;;;;;6209845;28;20285;-75
2023/04/01 10:28:41;;;;;;;1.03;1.03;;;;;;;;;;6238134;28;20289;-75
2023/04/01 10:32:22;;;;;;;2.33;1.87;;;;;;;;;;6236140;28;20303;-76
2023/04/01 10:36:05;;;;;;;1.00;1.00;;;;;;;;;;6261033;28;20305;-74
2023/04/01 10:39:34;;;;;;;2.00;1.90;;;;;;;;;;6246249;28;20293;-75
2023/04/01 10:43:24;;;;;;;3.00;1.10;;;;;;;;;;6236989;28;20308;-75
2023/04/01 10:47:04;;;;;;;0.97;0.90;;;;;;;;;;6236728;28;20301;-74
2023/04/01 10:50:56;;;;;;;2.30;1.30;;;;;;;;;;6236196;28;20336;-74
2023/04/01 10:54:22;;;;;;;1.83;1.10;;;;;;;;;;6238891;28;20292;-74
2023/04/01 10:58:09;;;;;;;0.87;0.80;;;;;;;;;;6262242;28;20463;-75
2023/04/01 11:02:13;;;;;;;1.07;1.07;;;;;;;;;;6253280;28;20600;-75
2023/04/01 11:06:16;;;;;;;0.80;0.80;;;;;;;;;;6258201;28;20297;-75
2023/04/01 11:09:55;;;;;;;0.80;0.80;;;;;;;;;;6235966;28;20296;-76
2023/04/01 11:13:31;;;;;;;1.03;0.90;;;;;;;;;;6239641;28;20299;-75
2023/04/01 11:17:04;;;;;;;1.10;1.00;;;;;;;;;;6260509;28;20293;-75
2023/04/01 11:20:29;;;;;;;6.33;0.70;;;;;;;;;;6259622;28;20444;-75
2023/04/01 11:24:03;;;;;;;2.03;1.30;;;;;;;;;;6258941;28;20321;-75
2023/04/01 11:27:30;;;;;;;2.03;1.47;;;;;;;;;;6260333;28;20373;-75
2023/04/01 11:30:54;;;;;;;0.90;0.90;;;;;;;;;;6258932;28;20292;-75
2023/04/01 11:34:06;;;;;;;1.43;0.90;;;;;;;;;;6258695;28;20463;-75
2023/04/01 11:37:22;;;;;;;0.93;0.93;;;;;;;;;;6261008;28;20429;-75
2023/04/01 11:41:04;;;;;;;1.33;1.27;;;;;;;;;;6206635;28;20608;-76
2023/04/01 11:44:19;;;;;;;2.33;0.80;;;;;;;;;;6261191;28;20302;-76
2023/04/01 11:47:50;;;;;;;0.90;0.90;;;;;;;;;;6258493;28;20289;-75
2023/04/01 11:51:06;;;;;;;0.97;0.80;;;;;;;;;;6259940;28;20574;-75
2023/04/01 11:54:35;;;;;;;1.00;1.00;;;;;;;;;;6259764;28;20295;-76
2023/04/01 11:57:52;;;;;;;0.70;0.70;;;;;;;;;;6258133;28;20294;-75
2023/04/01 12:01:21;;;;;;;1.37;1.37;;;;;;;;;;6260955;28;20299;-76
2023/04/01 12:04:55;;;;;;;0.60;0.60;;;;;;;;;;6260235;28;20487;-74
2023/04/01 12:08:10;;;;;;;1.13;0.90;;;;;;;;;;6259814;28;20285;-75
2023/04/01 12:11:19;;;;;;;0.90;0.90;;;;;;;;;;6247255;28;20304;-75
2023/04/01 12:14:28;;;;;;;0.77;0.77;;;;;;;;;;6260658;28;20293;-75
2023/04/01 12:17:40;;;;;;;1.40;1.40;;;;;;;;;;6259125;28;20527;-75
2023/04/01 12:20:53;;;;;;;0.90;0.90;;;;;;;;;;6260368;28;20264;-76
2023/04/01 12:24:27;;;;;;;1.10;1.10;;;;;;;;;;6259456;28;20474;-75
2023/04/01 12:27:40;;;;;;;0.90;0.90;;;;;;;;;;6260045;28;20329;-75
2023/04/01 12:31:04;;;;;;;1.53;1.30;;;;;;;;;;6248651;28;20295;-75
2023/04/01 12:34:45;;;;;;;0.90;0.90;;;;;;;;;;6248983;28;20294;-76
2023/04/01 12:38:05;;;;;;;0.90;0.90;;;;;;;;;;6259712;28;20292;-77
2023/04/01 12:41:15;;;;;;;0.70;0.70;;;;;;;;;;6260007;28;20339;-76
2023/04/01 12:44:59;;;;;;;0.70;0.70;;;;;;;;;;6259297;28;20311;-76
2023/04/01 12:48:33;;;;;;;0.80;0.80;;;;;;;;;;6218058;28;20346;-75
2023/04/01 12:52:07;;;;;;;1.00;0.90;;;;;;;;;;6259001;28;20304;-75
2023/04/01 12:55:41;;;;;;;0.70;0.70;;;;;;;;;;6257498;28;20467;-75
2023/04/01 12:59:17;;;;;;;0.80;0.80;;;;;;;;;;6259044;28;20298;-76
2023/04/01 13:02:31;;;;;;;1.00;1.00;;;;;;;;;;6258364;28;20583;-77
2023/04/01 13:06:27;;;;;;;0.80;0.80;;;;;;;;;;6256177;28;20298;-74
2023/04/01 13:09:40;;;;;;;0.70;0.70;;;;;;;;;;6182152;28;20297;-75
2023/04/01 13:13:06;;;;;;;2.57;0.70;;;;;;;;;;6173054;28;20331;-76
2023/04/01 13:16:15;;;;;;;0.90;0.90;;;;;;;;;;6258195;28;20305;-75
2023/04/01 13:19:25;;;;;;;2.70;2.60;;;;;;;;;;6257805;28;20462;-75
2023/04/01 13:22:40;;;;;;;0.90;0.90;;;;;;;;;;6258003;28;20314;-76
2023/04/01 13:25:49;;;;;;;1.43;1.00;;;;;;;;;;6259009;28;20372;-75
2023/04/01 13:29:12;;;;;;;1.67;0.77;;;;;;;;;;6258835;28;20294;-76
2023/04/01 13:32:27;;;;;;;0.70;0.70;;;;;;;;;;6259304;28;20472;-76
2023/04/01 13:35:52;;;;;;;0.80;0.80;;;;;;;;;;6256013;28;20290;-75
2023/04/01 13:39:26;;;;;;;1.10;1.10;;;;;;;;;;6258670;28;20290;-77
2023/04/01 13:42:35;;;;;;;0.70;0.70;;;;;;;;;;6249348;28;20444;-75
2023/04/01 13:45:59;;;;;;;1.10;1.10;;;;;;;;;;6258973;28;20562;-75
2023/04/01 13:49:19;;;;;;;2.57;0.90;;;;;;;;;;6259271;28;20476;-73
2023/04/01 13:53:00;;;;;;;1.27;0.60;;;;;;;;;;6259205;28;20290;-76
2023/04/01 13:56:14;;;;;;;0.60;0.60;;;;;;;;;;6212414;28;20297;-75
2023/04/01 13:59:40;;;;;;;0.90;0.90;;;;;;;;;;6262063;28;20302;-75
2023/04/01 14:03:15;;;;;;;1.10;1.10;;;;;;;;;;6261477;28;20393;-77
2023/04/01 14:06:30;;;;;;;2.00;0.90;;;;;;;;;;6261753;28;20306;-75
2023/04/01 14:09:46;;;;;;;0.80;0.80;;;;;;;;;;6262057;28;20306;-75
2023/04/01 14:12:59;;;;;;;0.90;0.90;;;;;;;;;;6253357;28;20293;-76
2023/04/01 14:16:22;;;;;;;0.60;0.60;;;;;;;;;;6263352;28;20326;-76
2023/04/01 14:19:51;;;;;;;0.80;0.80;;;;;;;;;;6262622;28;20302;-74
2023/04/01 14:23:12;;;;;;;0.70;0.70;;;;;;;;;;6262647;28;20590;-74
2023/04/01 14:26:48;;;;;;;1.00;0.90;;;;;;;;;;6262622;28;20298;-75
2023/04/01 14:30:03;;;;;;;0.80;0.80;;;;;;;;;;6250209;28;20598;-74
2023/04/01 14:33:22;;;;;;;1.00;1.00;;;;;;;;;;6261801;28;20289;-75
2023/04/01 14:36:42;;;;;;;1.23;1.20;;;;;;;;;;6252106;28;20616;-75
2023/04/01 14:40:17;;;;;;;3.30;1.07;;;;;;;;;;6237444;28;20298;-75
2023/04/01 14:43:39;;;;;;;1.13;0.60;;;;;;;;;;6237833;28;20316;-75
2023/04/01 14:47:09;;;;;;;0.80;0.80;;;;;;;;;;6238121;28;20295;-75
2023/04/01 14:50:16;;;;;;;3.47;0.90;;;;;;;;;;6237627;28;20289;-74
2023/04/01 14:53:29;;;;;;;0.77;0.77;;;;;;;;;;6237580;28;20311;-75
2023/04/01 14:56:40;;;;;;;1.70;1.07;;;;;;;;;;6236620;28;20298;-74
2023/04/01 14:59:50;;;;;;;1.53;0.80;;;;;;;;;;6237189;28;20298;-75
2023/04/01 15:03:03;;;;;;;0.97;0.97;;;;;;;;;;6255119;28;20289;-76
2023/04/01 15:06:44;;;;;;;0.90;0.90;;;;;;;;;;6261325;28;20316;-77
2023/04/01 15:09:57;;;;;;;0.57;0.57;;;;;;;;;;6255322;28;20302;-77
2023/04/01 15:13:11;;;;;;;4.30;0.80;;;;;;;;;;6237119;28;20302;-76
2023/04/01 15:16:22;;;;;;;1.00;1.00;;;;;;;;;;6237330;28;20300;-77
2023/04/01 15:19:38;;;;;;;0.73;0.73;;;;;;;;;;6236758;28;20306;-76
2023/04/01 15:23:12;;;;;;;0.87;0.87;;;;;;;;;;6236595;28;20293;-78
2023/04/01 15:26:37;;;;;;;0.80;0.80;;;;;;;;;;6237159;28;20297;-74
2023/04/01 15:30:07;;;;;;;1.20;1.10;;;;;;;;;;6235388;28;20563;-74
2023/04/01 15:33:20;;;;;;;0.90;0.90;;;;;;;;;;6227468;28;20295;-74
2023/04/01 15:36:33;;;;;;;4.60;2.33;;;;;;;;;;6249037;28;20309;-74
2023/04/01 15:39:47;;;;;;;1.10;1.10;;;;;;;;;;6259862;28;20297;-76
2023/04/01 15:43:11;;;;;;;1.03;1.03;;;;;;;;;;6260993;28;20295;-75
2023/04/01 15:46:54;;;;;;;1.30;1.30;;;;;;;;;;6261226;28;20661;-75
2023/04/01 15:50:18;;;;;;;1.13;1.00;;;;;;;;;;6184441;28;20321;-75
2023/04/01 15:53:56;;;;;;;1.70;1.60;;;;;;;;;;6184070;28;20315;-76
2023/04/01 15:57:21;;;;;;;1.20;1.20;;;;;;;;;;6174755;28;20296;-75
2023/04/01 16:00:32;;;;;;;0.97;0.80;;;;;;;;;;6184369;28;20301;-74
2023/04/01 16:03:41;;;;;;;1.43;1.43;;;;;;;;;;6168049;28;20308;-74
2023/04/01 16:06:59;;;;;;;1.60;1.23;;;;;;;;;;6184561;28;20303;-75
2023/04/01 16:10:24;;;;;;;1.27;1.27;;;;;;;;;;6178233;28;20301;-75
2023/04/01 16:13:41;;;;;;;1.10;1.00;;;;;;;;;;6160405;28;20310;-76
2023/04/01 16:16:59;;;;;;;0.90;0.90;;;;;;;;;;6160923;28;20307;-74
2023/04/01 16:20:16;;;;;;;1.57;1.53;;;;;;;;;;6181408;28;20305;-75
2023/04/01 16:23:26;;;;;;;1.30;1.20;;;;;;;;;;6235659;28;20312;-76
2023/04/01 16:26:38;;;;;;;0.97;0.97;;;;;;;;;;6235984;28;20289;-74
2023/04/01 16:29:48;;;;;;;6.73;1.53;;;;;;;;;;6234131;28;20423;-74
2023/04/01 16:32:58;;;;;;;4.13;1.40;;;;;;;;;;6235245;28;20475;-74
2023/04/01 16:36:11;;;;;;;5.30;1.30;;;;;;;;;;6244124;28;20327;-74
2023/04/01 16:39:29;;;;;;;1.00;1.00;;;;;;;;;;6259239;28;20296;-76
2023/04/01 16:42:44;;;;;;;2.67;1.30;;;;;;;;;;6258037;28;20548;-74
2023/04/01 16:45:58;;;;;;;1.20;1.20;;;;;;;;;;6259826;28;20298;-75
2023/04/01 16:49:30;;;;;;;1.77;1.70;;;;;;;;;;6259274;28;20494;-75
2023/04/01 16:52:49;;;;;;;1.10;1.10;;;;;;;;;;6258909;28;20294;-75
2023/04/01 16:56:00;;;;;;;1.53;1.43;;;;;;;;;;6259808;28;20299;-76
2023/04/01 16:59:15;;;;;;;1.10;1.10;;;;;;;;;;6259207;28;20493;-76
2023/04/01 17:02:25;;;;;;;1.80;1.20;;;;;;;;;;6259747;28;20304;-75
2023/04/01 17:05:43;;;;;;;2.40;1.33;;;;;;;;;;6257838;28;20590;-75
2023/04/01 17:09:23;;;;;;;4.17;1.30;;;;;;;;;;6258446;28;20300;-75
2023/04/01 17:12:34;;;;;;;1.70;1.60;;;;;;;;;;6234383;28;20446;-75
2023/04/01 17:15:42;;;;;;;2.33;1.70;;;;;;;;;;6234797;28;20376;-75
2023/04/01 17:18:55;;;;;;;1.50;1.40;;;;;;;;;;6234273;28;20292;-75
2023/04/01 17:22:09;;;;;;;1.87;1.47;;;;;;;;;;6234835;28;20311;-74
2023/04/01 17:25:34;;;;;;;2.70;1.13;;;;;;;;;;6234215;28;20296;-75
2023/04/01 17:28:48;;;;;;;1.40;1.40;;;;;;;;;;6234247;28;20298;-75
2023/04/01 17:32:03;;;;;;;5.63;1.97;;;;;;;;;;6234730;28;20285;-73
2023/04/01 17:35:12;;;;;;;3.00;1.60;;;;;;;;;;6241106;28;20312;-75
2023/04/01 17:38:35;;;;;;;1.30;1.30;;;;;;;;;;6263889;28;20298;-75
2023/04/01 17:41:48;;;;;;;2.63;1.53;;;;;;;;;;6262869;28;20520;-75
2023/04/01 17:44:58;;;;;;;3.97;1.30;;;;;;;;;;6263711;28;20295;-74
2023/04/01 17:48:15;;;;;;;2.20;1.97;;;;;;;;;;6263332;28;20295;-74
2023/04/01 17:51:26;;;;;;;5.30;2.00;;;;;;;;;;6263559;28;20315;-75
2023/04/01 17:54:38;;;;;;;4.70;1.50;;;;;;;;;;6258319;28;20312;-75
2023/04/01 17:57:50;;;;;;;4.37;1.93;;;;;;;;;;6263121;28;20302;-74
2023/04/01 18:01:15;;;;;;;1.57;1.47;;;;;;;;;;6262330;28;20291;-74
2023/04/01 18:04:31;;;;;;;2.00;1.80;;;;;;;;;;6261877;28;20320;-74
2023/04/01 18:08:13;;;;;;;3.77;2.60;;;;;;;;;;6257780;28;20306;-74
2023/04/01 18:11:26;;;;;;;5.63;1.93;;;;;;;;;;6247765;28;20562;-74
2023/04/01 18:15:16;;;;;;;3.83;2.10;;;;;;;;;;6237378;28;20467;-74
2023/04/01 18:18:37;;;;;;;2.33;2.13;;;;;;;;;;6205917;28;20305;-74
2023/04/01 18:21:47;;;;;;;3.17;2.00;;;;;;;;;;6239362;28;20296;-75
2023/04/01 18:24:59;;;;;;;5.87;2.20;;;;;;;;;;6237969;28;20288;-73
2023/04/01 18:28:20;;;;;;;4.50;2.00;;;;;;;;;;6237415;28;20561;-75
2023/04/01 18:31:26;;;;;;;1.83;1.70;;;;;;;;;;6238307;28;20307;-75
2023/04/01 18:34:41;;;;;;;4.83;1.80;;;;;;;;;;6238030;28;20431;-74
2023/04/01 18:37:50;;;;;;;4.23;1.80;;;;;;;;;;6260748;28;20362;-74
2023/04/01 18:41:08;;;;;;;3.57;2.57;;;;;;;;;;6260746;28;20296;-75
2023/04/01 18:44:26;;;;;;;4.40;2.33;;;;;;;;;;6262183;28;20296;-75
2023/04/01 18:47:43;;;;;;;5.13;2.43;;;;;;;;;;6261507;28;20292;-74
2023/04/01 18:50:54;;;;;;;6.10;2.13;;;;;;;;;;6262614;28;20286;-74
2023/04/01 18:54:01;;;;;;;4.50;1.73;;;;;;;;;;6262362;28;20284;-74
2023/04/01 18:57:12;;;;;;;5.83;1.73;;;;;;;;;;6261994;28;20286;-75
2023/04/01 19:00:23;;;;;;;3.60;2.27;;;;;;;;;;6261918;28;20306;-74
2023/04/01 19:03:33;;;;;;;6.87;2.27;;;;;;;;;;6261403;28;20314;-75
2023/04/01 19:06:47;;;;;;;4.37;2.90;;;;;;;;;;6262071;28;20307;-75
2023/04/01 19:09:53;;;;;;;1.90;1.70;;;;;;;;;;6258414;28;20309;-73
2023/04/01 19:13:10;;;;;;;4.47;1.83;;;;;;;;;;6236746;28;20352;-75
2023/04/01 19:16:27;;;;;;;5.13;1.80;;;;;;;;;;6237134;28;20392;-75
2023/04/01 19:19:52;;;;;;;2.97;1.90;;;;;;;;;;6236748;28;20293;-74
2023/04/01 19:23:20;;;;;;;2.03;1.77;;;;;;;;;;6236239;28;20305;-74
2023/04/01 19:26:29;;;;;;;5.90;1.77;;;;;;;;;;6236701;28;20290;-74
2023/04/01 19:29:46;;;;;;;5.77;1.90;;;;;;;;;;6235130;28;20456;-73
2023/04/01 19:32:58;;;;;;;3.00;1.90;;;;;;;;;;6236375;28;20296;-73
2023/04/01 19:36:10;;;;;;;2.97;2.03;;;;;;;;;;6245668;28;20292;-73
2023/04/01 19:39:28;;;;;;;2.33;1.90;;;;;;;;;;6260337;28;20299;-74
2023/04/01 19:42:36;;;;;;;1.70;1.60;;;;;;;;;;6260487;28;20293;-74